Time;durP1;ratioP1;P1;durP2;ratioP2;P2;SDS_P1;SDS_P2;PMS_P1;PMS_P2;Temp;Humidity;BMP_temperature;BMP_pressure;BME280_temperature;BME280_humidity;BME280_pressure;Samples;Min_cycle;Max_cycle;Signal;HPM_P1;HPM_P2
2022/08/31 00:06:17;;;;;;;4.93;2.50;;;;;;;16.94;67.92;102060.47;5042237;28;20112;-63
2022/08/31 00:08:43;;;;;;;6.15;2.22;;;;;;;17.04;67.46;102057.88;5032183;28;20108;-64
2022/08/31 00:11:12;;;;;;;4.90;2.28;;;;;;;16.99;67.92;102058.28;5040693;28;20434;-64
2022/08/31 00:13:39;;;;;;;4.60;2.22;;;;;;;16.89;68.30;102060.06;5032433;28;20029;-66
2022/08/31 00:16:05;;;;;;;5.07;2.35;;;;;;;17.01;67.58;102055.50;5029027;28;20668;-64
2022/08/31 00:18:30;;;;;;;3.70;2.20;;;;;;;16.94;67.57;102055.22;5040181;28;20107;-64
2022/08/31 00:20:56;;;;;;;4.05;2.42;;;;;;;16.91;67.72;102052.88;5035618;28;20021;-64
2022/08/31 00:23:21;;;;;;;4.00;2.17;;;;;;;16.89;68.15;102059.22;5038939;28;20420;-64
2022/08/31 00:25:48;;;;;;;6.85;2.53;;;;;;;16.83;68.44;102060.59;5035102;28;20069;-65
2022/08/31 00:28:14;;;;;;;6.78;2.70;;;;;;;16.92;67.93;102067.66;5044055;28;20119;-67
2022/08/31 00:30:40;;;;;;;4.32;2.42;;;;;;;16.82;68.36;102069.41;5040127;28;20095;-64
2022/08/31 00:33:06;;;;;;;6.15;2.40;;;;;;;16.79;68.46;102064.44;5040553;28;20463;-64
2022/08/31 00:35:35;;;;;;;5.03;2.55;;;;;;;16.93;67.35;102066.69;5033112;28;20037;-65
2022/08/31 00:38:01;;;;;;;4.13;2.40;;;;;;;16.74;68.91;102071.88;5044028;28;20096;-66
2022/08/31 00:40:27;;;;;;;6.03;2.65;;;;;;;16.77;68.28;102068.16;5042209;28;20397;-65
2022/08/31 00:42:53;;;;;;;3.92;2.50;;;;;;;16.79;68.40;102072.31;5036877;28;20477;-64
2022/08/31 00:45:18;;;;;;;4.07;2.50;;;;;;;16.76;67.59;102064.72;5035868;28;20029;-63
2022/08/31 00:47:44;;;;;;;4.47;2.33;;;;;;;16.78;68.52;102069.81;5022230;28;20430;-65
2022/08/31 00:50:13;;;;;;;3.40;2.33;;;;;;;16.70;67.95;102073.09;5061290;28;20028;-64
2022/08/31 00:52:41;;;;;;;3.40;2.50;;;;;;;16.63;68.61;102069.34;5049298;28;20024;-66
2022/08/31 00:55:34;;;;;;;4.43;2.53;;;;;;;16.73;67.82;102067.59;5048958;28;20017;-65
2022/08/31 00:58:03;;;;;;;4.50;2.80;;;;;;;16.62;68.41;102062.44;5045841;28;20155;-64
2022/08/31 01:00:29;;;;;;;4.55;2.78;;;;;;;16.56;68.48;102060.34;5042965;28;20021;-64
2022/08/31 01:02:56;;;;;;;5.65;2.65;;;;;;;16.60;68.85;102065.22;5032046;28;20484;-63
2022/08/31 01:05:23;;;;;;;4.63;2.70;;;;;;;16.60;68.68;102070.44;5038099;28;20131;-64
2022/08/31 01:07:49;;;;;;;4.93;2.60;;;;;;;16.64;68.75;102066.59;5041136;28;20029;-64
2022/08/31 01:10:19;;;;;;;3.33;2.58;;;;;;;16.62;68.40;102071.13;5034571;28;20025;-64
2022/08/31 01:12:46;;;;;;;6.45;2.55;;;;;;;16.54;68.18;102065.75;5039492;28;20052;-64
2022/08/31 01:15:14;;;;;;;4.70;2.40;;;;;;;16.55;68.53;102071.81;5044817;28;20036;-64
2022/08/31 01:17:42;;;;;;;4.37;2.80;;;;;;;16.61;68.05;102058.16;5044168;28;20060;-67
2022/08/31 01:20:20;;;;;;;6.50;2.63;;;;;;;16.49;69.14;102059.25;5029871;28;20112;-64
2022/08/31 01:23:01;;;;;;;3.45;2.53;;;;;;;16.50;68.84;102060.91;5020343;28;20401;-64
2022/08/31 01:25:26;;;;;;;4.60;2.63;;;;;;;16.35;69.42;102056.03;5041245;28;20025;-68
2022/08/31 01:27:53;;;;;;;5.55;2.58;;;;;;;16.38;68.80;102050.53;5045614;28;20071;-63
2022/08/31 01:30:24;;;;;;;4.70;2.60;;;;;;;16.40;68.94;102064.34;5043776;28;20079;-64
2022/08/31 01:32:50;;;;;;;4.03;2.47;;;;;;;16.45;68.82;102061.28;5042569;28;20034;-64
2022/08/31 01:35:15;;;;;;;4.13;2.55;;;;;;;16.42;68.91;102057.16;5035706;28;20025;-67
2022/08/31 01:37:41;;;;;;;7.60;3.00;;;;;;;16.44;68.36;102057.84;5037722;28;20072;-64
2022/08/31 01:40:08;;;;;;;6.07;2.60;;;;;;;16.34;69.28;102056.97;5033931;28;20099;-64
2022/08/31 01:42:33;;;;;;;4.47;2.72;;;;;;;16.30;68.90;102052.16;5041993;28;20167;-64
2022/08/31 01:44:59;;;;;;;5.05;2.55;;;;;;;16.27;69.04;102048.00;5028991;28;20528;-64
2022/08/31 01:47:24;;;;;;;3.97;2.42;;;;;;;16.24;69.30;102058.75;5039475;28;20031;-63
2022/08/31 01:49:50;;;;;;;6.45;2.80;;;;;;;16.14;69.66;102063.13;5029804;28;20036;-64
2022/08/31 01:52:15;;;;;;;4.22;2.47;;;;;;;16.18;69.30;102062.72;5032680;28;20127;-66
2022/08/31 01:54:40;;;;;;;6.00;2.90;;;;;;;16.18;68.98;102062.72;5028694;28;20039;-64
2022/08/31 01:57:06;;;;;;;5.72;3.08;;;;;;;16.28;68.90;102061.91;5040014;28;20040;-63
2022/08/31 01:59:31;;;;;;;4.75;2.85;;;;;;;16.09;69.49;102065.28;5046671;28;20104;-66
2022/08/31 02:01:57;;;;;;;5.22;2.60;;;;;;;16.10;69.81;102075.63;5036704;28;20025;-64
2022/08/31 02:04:25;;;;;;;4.57;2.63;;;;;;;16.07;69.55;102067.22;5034649;28;20020;-64
2022/08/31 02:06:53;;;;;;;4.45;2.80;;;;;;;16.02;70.15;102069.41;5038089;28;20028;-69
2022/08/31 02:09:20;;;;;;;5.40;2.72;;;;;;;16.05;69.41;102069.13;5045048;28;20033;-64
2022/08/31 02:11:46;;;;;;;5.38;2.95;;;;;;;16.13;69.19;102061.47;5040066;28;20064;-65
2022/08/31 02:14:11;;;;;;;3.35;2.47;;;;;;;16.15;69.02;102057.75;5042151;28;20466;-64
2022/08/31 02:16:38;;;;;;;4.80;2.80;;;;;;;15.99;69.48;102053.94;5049897;28;20125;-66
2022/08/31 02:19:04;;;;;;;4.32;2.55;;;;;;;16.03;69.19;102055.34;5044262;28;20029;-63
2022/08/31 02:21:31;;;;;;;4.35;2.78;;;;;;;15.99;69.30;102059.19;5039331;28;20024;-64
2022/08/31 02:23:56;;;;;;;5.00;2.70;;;;;;;16.01;69.26;102057.28;5052523;28;20034;-64
2022/08/31 02:26:22;;;;;;;4.20;2.67;;;;;;;15.83;69.82;102059.66;5040533;28;20439;-64
2022/08/31 02:28:47;;;;;;;4.43;2.55;;;;;;;15.83;69.97;102044.81;5042649;28;20036;-63
2022/08/31 02:31:13;;;;;;;4.75;2.80;;;;;;;15.78;69.67;102052.19;5041089;28;20040;-64
2022/08/31 02:33:38;;;;;;;5.00;2.40;;;;;;;15.79;69.59;102064.31;5037852;28;20033;-63
2022/08/31 02:36:05;;;;;;;4.05;2.53;;;;;;;15.79;69.16;102043.38;5033861;28;20072;-64
2022/08/31 02:38:32;;;;;;;4.45;2.58;;;;;;;15.71;69.46;102056.28;5040449;28;20060;-63
2022/08/31 02:40:57;;;;;;;3.72;2.42;;;;;;;15.75;69.71;102062.09;5038317;28;20472;-64
2022/08/31 02:43:23;;;;;;;4.65;2.38;;;;;;;15.79;68.88;102058.25;5034983;28;20032;-64
2022/08/31 02:45:48;;;;;;;5.05;2.42;;;;;;;15.63;69.56;102056.09;5030489;28;20024;-64
2022/08/31 02:48:14;;;;;;;3.47;2.38;;;;;;;15.72;68.94;102068.41;5038610;28;20045;-65
2022/08/31 02:50:46;;;;;;;6.53;2.75;;;;;;;15.67;69.19;102070.59;5037417;28;20040;-66
2022/08/31 02:53:14;;;;;;;4.45;2.60;;;;;;;15.62;68.85;102064.88;5021103;28;20095;-64
2022/08/31 02:55:40;;;;;;;4.27;2.63;;;;;;;15.49;69.81;102062.44;5037926;28;20107;-64
2022/08/31 02:58:05;;;;;;;3.92;2.55;;;;;;;15.46;69.93;102061.84;5044602;28;20091;-64
2022/08/31 03:00:32;;;;;;;5.68;2.40;;;;;;;15.47;70.02;102058.28;5047584;28;20040;-64
2022/08/31 03:02:57;;;;;;;4.57;2.40;;;;;;;15.50;69.43;102058.03;5038676;28;20029;-64
2022/08/31 03:05:24;;;;;;;3.78;2.30;;;;;;;15.48;69.41;102044.25;5051552;28;20381;-63
2022/08/31 03:07:49;;;;;;;5.60;2.70;;;;;;;15.46;69.12;102061.84;5041082;28;20037;-63
2022/08/31 03:10:16;;;;;;;5.97;2.50;;;;;;;15.45;68.96;102054.97;5036139;28;20519;-65
2022/08/31 03:12:42;;;;;;;3.97;2.45;;;;;;;15.39;69.09;102056.31;5033046;28;20053;-63
2022/08/31 03:15:09;;;;;;;3.38;2.20;;;;;;;15.44;68.98;102063.78;5016290;28;20406;-66
2022/08/31 03:17:35;;;;;;;4.88;2.67;;;;;;;15.32;68.88;102056.00;5046761;28;20025;-69
2022/08/31 03:20:04;;;;;;;4.68;2.20;;;;;;;15.40;68.45;102061.41;5042885;28;20021;-66
2022/08/31 03:22:31;;;;;;;4.68;2.30;;;;;;;15.25;69.02;102062.66;5020579;28;20036;-64
2022/08/31 03:24:56;;;;;;;4.20;2.22;;;;;;;15.19;69.19;102064.94;5038529;28;20021;-64
2022/08/31 03:27:23;;;;;;;4.53;2.25;;;;;;;15.23;68.78;102061.97;5038817;28;20097;-64
2022/08/31 03:29:49;;;;;;;3.83;2.25;;;;;;;15.14;69.05;102058.31;5040825;28;20036;-65
2022/08/31 03:32:15;;;;;;;4.68;2.47;;;;;;;15.21;68.50;102056.03;5041932;28;20071;-64
2022/08/31 03:34:40;;;;;;;3.95;2.28;;;;;;;15.12;69.36;102062.00;5043099;28;20033;-67
2022/08/31 03:37:05;;;;;;;3.63;2.30;;;;;;;15.14;68.95;102062.72;5039519;28;20410;-63
2022/08/31 03:39:31;;;;;;;4.47;2.28;;;;;;;15.12;68.80;102056.78;5048122;28;20495;-63
2022/08/31 03:41:56;;;;;;;6.15;2.30;;;;;;;15.11;68.01;102062.97;5038346;28;20074;-66
2022/08/31 03:44:22;;;;;;;3.95;2.28;;;;;;;15.02;68.70;102063.69;5040230;28;20037;-63
2022/08/31 03:46:54;;;;;;;3.70;2.25;;;;;;;15.00;67.99;102055.16;5039478;28;20029;-63
2022/08/31 03:49:20;;;;;;;4.40;2.30;;;;;;;14.99;68.38;102063.97;5029512;28;20021;-64
2022/08/31 03:51:46;;;;;;;3.53;2.30;;;;;;;14.92;68.42;102054.97;5028164;28;20476;-67
2022/08/31 03:54:12;;;;;;;4.40;2.25;;;;;;;14.93;68.20;102064.44;5031941;28;20049;-64
2022/08/31 03:56:38;;;;;;;4.20;2.05;;;;;;;14.94;67.49;102066.09;5031639;28;20029;-65
2022/08/31 03:59:03;;;;;;;2.67;1.90;;;;;;;14.97;67.37;102073.72;5044785;28;20036;-63
2022/08/31 04:01:29;;;;;;;4.78;2.20;;;;;;;14.96;67.26;102077.25;5045070;28;20033;-63
2022/08/31 04:03:54;;;;;;;3.92;1.98;;;;;;;15.00;66.71;102068.22;5044600;28;20021;-64
2022/08/31 04:06:21;;;;;;;2.70;1.80;;;;;;;15.01;66.55;102068.09;5034459;28;20536;-64
2022/08/31 04:08:46;;;;;;;4.55;2.05;;;;;;;14.91;66.64;102072.41;5032596;28;20040;-64
2022/08/31 04:11:15;;;;;;;4.13;2.00;;;;;;;14.72;66.83;102077.44;5025488;28;20021;-64
2022/08/31 04:13:41;;;;;;;2.78;1.80;;;;;;;14.86;66.06;102079.78;5035254;28;20025;-64
2022/08/31 04:16:11;;;;;;;2.55;1.95;;;;;;;14.78;66.87;102082.16;5037376;28;20029;-64
2022/08/31 04:18:41;;;;;;;3.55;2.00;;;;;;;14.66;67.12;102083.97;5039802;28;20025;-64
2022/08/31 04:21:29;;;;;;;5.53;2.17;;;;;;;14.71;66.96;102074.00;5038017;28;20037;-63
2022/08/31 04:23:54;;;;;;;3.67;2.10;;;;;;;14.75;66.73;102082.44;5041600;28;20028;-65
2022/08/31 04:26:27;;;;;;;3.70;2.20;;;;;;;14.74;66.84;102084.22;5041051;28;20028;-64
2022/08/31 04:28:53;;;;;;;2.45;1.90;;;;;;;14.75;66.56;102083.25;5044577;28;20405;-64
2022/08/31 04:31:20;;;;;;;3.67;2.22;;;;;;;14.76;66.56;102074.47;5048697;28;20449;-64
2022/08/31 04:33:46;;;;;;;4.18;2.40;;;;;;;14.57;67.41;102084.72;5046856;28;20033;-64
2022/08/31 04:36:16;;;;;;;4.80;2.10;;;;;;;14.63;66.71;102089.44;5047274;28;20488;-64
2022/08/31 04:38:44;;;;;;;3.22;1.98;;;;;;;14.64;66.76;102085.06;5050348;28;20519;-64
2022/08/31 04:41:13;;;;;;;3.35;2.08;;;;;;;14.69;66.67;102088.13;5046613;28;20540;-64
2022/08/31 04:43:42;;;;;;;2.78;2.20;;;;;;;14.50;67.25;102084.34;5044361;28;20040;-64
2022/08/31 04:46:07;;;;;;;3.17;1.85;;;;;;;14.55;66.97;102082.19;5045988;28;20021;-64
2022/08/31 04:48:34;;;;;;;4.65;2.20;;;;;;;14.54;66.87;102084.94;5043943;28;20079;-64
2022/08/31 04:51:15;;;;;;;4.72;2.13;;;;;;;14.58;66.89;102086.38;5037831;28;20029;-64
2022/08/31 04:53:41;;;;;;;4.07;2.40;;;;;;;14.47;67.04;102084.59;5043957;28;20036;-63
2022/08/31 04:56:13;;;;;;;4.90;2.22;;;;;;;14.52;66.91;102092.06;5032547;28;20500;-63
2022/08/31 04:58:44;;;;;;;4.28;2.22;;;;;;;14.53;66.53;102088.50;5046632;28;20491;-65
2022/08/31 05:01:12;;;;;;;4.50;2.15;;;;;;;14.47;67.11;102091.59;5039972;28;20066;-64
2022/08/31 05:03:38;;;;;;;4.53;2.30;;;;;;;14.53;66.71;102098.94;5044992;28;20116;-63
2022/08/31 05:06:04;;;;;;;3.15;2.10;;;;;;;14.48;66.52;102096.69;5032418;28;20743;-65
2022/08/31 05:08:29;;;;;;;4.40;1.83;;;;;;;14.47;67.22;102099.44;5047095;28;20320;-65
2022/08/31 05:10:55;;;;;;;2.40;1.80;;;;;;;14.42;67.08;102106.75;5036922;28;20540;-63
2022/08/31 05:13:21;;;;;;;3.78;2.05;;;;;;;14.41;66.75;102107.69;5048859;28;20520;-63
2022/08/31 05:15:46;;;;;;;3.55;2.20;;;;;;;14.31;67.18;102100.56;5047736;28;20546;-63
2022/08/31 05:18:14;;;;;;;3.65;2.00;;;;;;;14.33;67.09;102100.44;5048641;28;20028;-63
2022/08/31 05:20:40;;;;;;;3.67;1.95;;;;;;;14.42;66.91;102111.97;5047603;28;20047;-64
2022/08/31 05:23:06;;;;;;;2.97;1.75;;;;;;;14.40;67.04;102111.25;5041344;28;20532;-65
2022/08/31 05:25:32;;;;;;;3.80;1.63;;;;;;;14.48;65.75;102116.75;5047640;28;20472;-64
2022/08/31 05:27:58;;;;;;;3.83;2.08;;;;;;;14.34;66.68;102120.41;5048386;28;20052;-63
2022/08/31 05:30:24;;;;;;;5.00;2.30;;;;;;;14.23;66.65;102097.72;5031065;28;20054;-64
2022/08/31 05:32:49;;;;;;;2.47;1.98;;;;;;;14.36;66.31;102102.81;5059027;28;20104;-63
2022/08/31 05:35:15;;;;;;;3.47;2.00;;;;;;;14.43;66.28;102113.63;5035744;28;20444;-65
2022/08/31 05:37:41;;;;;;;4.72;1.83;;;;;;;14.40;66.63;102119.94;5041459;28;20040;-63
2022/08/31 05:40:08;;;;;;;3.80;2.03;;;;;;;14.38;66.34;102116.56;5046596;28;20025;-65
2022/08/31 05:42:34;;;;;;;2.67;1.90;;;;;;;14.37;66.58;102104.47;5034474;28;20167;-64
2022/08/31 05:44:59;;;;;;;2.85;1.83;;;;;;;14.40;66.81;102113.88;5039283;28;20047;-63
2022/08/31 05:47:25;;;;;;;2.83;1.90;;;;;;;14.45;66.19;102116.94;5040036;28;20239;-63
2022/08/31 05:49:50;;;;;;;2.75;1.80;;;;;;;14.43;66.56;102118.84;5044727;28;20516;-63
2022/08/31 05:52:16;;;;;;;2.75;1.73;;;;;;;14.46;65.56;102129.88;5031434;28;20025;-63
2022/08/31 05:54:41;;;;;;;2.92;1.83;;;;;;;14.45;65.52;102109.09;5029171;28;20026;-63
2022/08/31 05:57:07;;;;;;;3.38;1.77;;;;;;;14.49;66.07;102119.22;5034235;28;20020;-63
2022/08/31 05:59:33;;;;;;;2.65;1.60;;;;;;;14.46;66.21;102134.28;5038612;28;20017;-63
2022/08/31 06:01:59;;;;;;;3.55;1.80;;;;;;;14.45;65.55;102127.38;5043613;28;20115;-63
2022/08/31 06:04:25;;;;;;;3.47;1.63;;;;;;;14.41;65.57;102125.97;5043758;28;20504;-64
2022/08/31 06:06:51;;;;;;;5.13;1.95;;;;;;;14.37;66.33;102124.53;5048411;28;20044;-64
2022/08/31 06:09:16;;;;;;;2.92;1.60;;;;;;;14.42;65.57;102128.47;5040273;28;20022;-64
2022/08/31 06:11:42;;;;;;;2.78;1.70;;;;;;;14.43;65.82;102130.13;5035042;28;20500;-63
2022/08/31 06:14:09;;;;;;;3.67;1.60;;;;;;;14.42;65.57;102138.91;5047367;28;20025;-64
2022/08/31 06:16:35;;;;;;;2.20;1.40;;;;;;;14.52;65.00;102134.66;5046996;28;20032;-65
2022/08/31 06:19:05;;;;;;;2.67;1.70;;;;;;;14.48;64.77;102132.41;5034738;28;20033;-64
2022/08/31 06:21:33;;;;;;;3.78;1.60;;;;;;;14.42;64.84;102132.84;5027478;28;20487;-66
2022/08/31 06:24:01;;;;;;;4.07;1.77;;;;;;;14.36;65.00;102128.94;5035707;28;20119;-64
2022/08/31 06:26:29;;;;;;;3.78;1.58;;;;;;;14.42;64.92;102138.06;5040114;28;20157;-65
2022/08/31 06:28:57;;;;;;;4.53;1.60;;;;;;;14.42;64.46;102138.91;5036885;28;20036;-64
2022/08/31 06:31:29;;;;;;;4.97;1.90;;;;;;;14.45;64.71;102135.19;5037626;28;20415;-63
2022/08/31 06:33:56;;;;;;;4.00;1.55;;;;;;;14.50;64.52;102131.31;5048493;28;20025;-63
2022/08/31 06:36:23;;;;;;;3.95;1.75;;;;;;;14.48;64.74;102133.22;5036455;28;20029;-66
2022/08/31 06:38:50;;;;;;;2.77;1.70;;;;;;;14.56;64.14;102119.56;5033652;28;20025;-65
2022/08/31 06:41:38;;;;;;;2.60;1.50;;;;;;;14.56;64.79;102137.84;5038932;28;20287;-63
2022/08/31 06:44:07;;;;;;;3.33;1.70;;;;;;;14.60;64.20;102136.66;5046712;28;20021;-64
2022/08/31 06:46:34;;;;;;;4.18;1.80;;;;;;;14.64;64.14;102132.88;5032732;28;20120;-64
2022/08/31 06:48:59;;;;;;;3.35;1.70;;;;;;;14.57;63.56;102136.94;5040990;28;20411;-65
2022/08/31 06:51:25;;;;;;;5.05;1.77;;;;;;;14.72;63.49;102151.38;5045832;28;20021;-64
2022/08/31 06:53:51;;;;;;;3.88;1.90;;;;;;;14.73;63.36;102144.38;5044451;28;20048;-64
2022/08/31 06:56:26;;;;;;;3.05;1.85;;;;;;;14.73;63.57;102154.81;5046283;28;20078;-64
2022/08/31 06:58:53;;;;;;;4.50;1.90;;;;;;;14.81;63.43;102140.22;5046786;28;20027;-66
2022/08/31 07:01:21;;;;;;;3.28;1.90;;;;;;;14.85;63.86;102149.50;5041467;28;20120;-65
2022/08/31 07:03:48;;;;;;;2.85;1.90;;;;;;;14.92;62.78;102151.63;5030236;28;20087;-64
2022/08/31 07:06:20;;;;;;;5.05;1.92;;;;;;;15.03;63.23;102164.66;5046108;28;20108;-68
2022/08/31 07:08:51;;;;;;;3.42;1.85;;;;;;;15.11;62.92;102157.03;5048210;28;20070;-64
2022/08/31 07:11:23;;;;;;;2.72;2.00;;;;;;;15.19;62.03;102172.09;5033856;28;20033;-64
2022/08/31 07:13:52;;;;;;;3.90;1.95;;;;;;;15.19;62.54;102180.75;5029897;28;20108;-67
2022/08/31 07:16:20;;;;;;;3.78;1.70;;;;;;;15.26;62.16;102170.69;5041954;28;20373;-64
2022/08/31 07:18:47;;;;;;;3.67;2.03;;;;;;;15.32;62.35;102176.25;5036281;28;20018;-63
2022/08/31 07:21:15;;;;;;;4.68;2.00;;;;;;;15.31;62.34;102185.03;5043498;28;20033;-64
2022/08/31 07:23:41;;;;;;;3.65;2.00;;;;;;;15.33;62.15;102183.13;5040116;28;20496;-66
2022/08/31 07:26:13;;;;;;;2.85;1.70;;;;;;;15.28;61.85;102177.44;5040697;28;20052;-64
2022/08/31 07:28:42;;;;;;;5.65;2.08;;;;;;;15.38;62.62;102175.75;5035942;28;20025;-66
2022/08/31 07:31:09;;;;;;;4.28;1.73;;;;;;;15.45;62.34;102175.25;5046407;28;20024;-64
2022/08/31 07:33:37;;;;;;;3.40;1.80;;;;;;;15.39;62.69;102177.41;5040618;28;20465;-67
2022/08/31 07:36:23;;;;;;;5.65;2.13;;;;;;;15.46;62.86;102182.13;5015945;28;20040;-63
2022/08/31 07:44:19;;;;;;;3.20;1.73;;;;;;;15.57;62.49;102182.09;5039719;28;20039;-67
2022/08/31 07:46:46;;;;;;;4.43;1.90;;;;;;;15.66;62.03;102178.78;5039418;28;20124;-64
2022/08/31 07:49:13;;;;;;;5.40;1.90;;;;;;;15.73;62.65;102182.53;5044002;28;20519;-67
2022/08/31 07:51:45;;;;;;;4.03;2.10;;;;;;;15.65;61.67;102170.09;5045855;28;20071;-64
2022/08/31 07:54:11;;;;;;;5.60;1.83;;;;;;;15.76;62.86;102178.84;5045406;28;20114;-64
2022/08/31 07:56:37;;;;;;;2.90;1.67;;;;;;;15.83;62.37;102180.84;5031171;28;20031;-64
2022/08/31 07:59:06;;;;;;;4.47;1.88;;;;;;;15.90;63.08;102187.22;5028392;28;20017;-64
2022/08/31 08:01:33;;;;;;;;;;;;;;;16.07;62.71;102191.06;5045858;28;20046;-64
2022/08/31 08:04:00;;;;;;;5.87;2.00;;;;;;;16.21;62.78;102184.66;5028982;28;19920;-65
2022/08/31 08:06:27;;;;;;;4.78;1.85;;;;;;;16.38;63.49;102194.53;5038550;28;20366;-64
2022/08/31 08:08:54;;;;;;;4.63;2.10;;;;;;;16.48;62.11;102185.91;5037731;28;20144;-64
2022/08/31 08:11:20;;;;;;;3.97;1.80;;;;;;;16.63;62.92;102189.84;5029855;28;20032;-65
2022/08/31 08:13:47;;;;;;;4.22;1.90;;;;;;;16.72;61.06;102189.09;5029889;28;20029;-66
2022/08/31 08:16:13;;;;;;;3.78;1.80;;;;;;;16.81;61.58;102188.31;5044409;28;20115;-64
2022/08/31 08:18:38;;;;;;;2.97;1.77;;;;;;;16.80;60.70;102181.38;5036927;28;20152;-65
2022/08/31 08:21:04;;;;;;;4.57;2.00;;;;;;;17.08;61.74;102186.84;5031246;28;20075;-64
2022/08/31 08:23:30;;;;;;;4.50;1.80;;;;;;;17.13;60.50;102197.75;5035444;28;20029;-65
2022/08/31 08:25:59;;;;;;;3.90;2.05;;;;;;;17.18;60.33;102192.94;5044079;28;20035;-64
2022/08/31 08:28:29;;;;;;;6.03;2.20;;;;;;;17.19;59.73;102191.97;5042095;28;20035;-64
2022/08/31 08:30:59;;;;;;;4.50;2.10;;;;;;;17.36;60.20;102193.13;5033733;28;20036;-67
2022/08/31 08:33:27;;;;;;;4.15;1.90;;;;;;;17.45;60.15;102190.50;5034869;28;20020;-68
2022/08/31 08:35:58;;;;;;;3.70;2.03;;;;;;;17.47;59.86;102185.94;5030669;28;20037;-64
2022/08/31 08:38:30;;;;;;;4.22;2.00;;;;;;;17.59;59.84;102191.88;5040299;28;20028;-64
2022/08/31 08:40:58;;;;;;;5.32;2.10;;;;;;;17.67;60.71;102185.97;5044775;28;20052;-65
2022/08/31 08:43:30;;;;;;;4.30;1.90;;;;;;;17.84;61.02;102187.94;5041922;28;20017;-66
2022/08/31 08:45:57;;;;;;;6.43;2.20;;;;;;;17.76;59.19;102190.41;5041083;28;20643;-64
2022/08/31 08:48:26;;;;;;;4.88;2.08;;;;;;;17.81;60.43;102185.56;5036192;28;20030;-65
2022/08/31 08:50:52;;;;;;;4.57;2.00;;;;;;;17.90;59.79;102187.38;5041327;28;20033;-67
2022/08/31 08:53:21;;;;;;;3.78;2.17;;;;;;;17.76;60.29;102185.97;5035151;28;20382;-63
2022/08/31 08:55:47;;;;;;;4.85;2.22;;;;;;;17.87;60.38;102177.13;5032661;28;20075;-67
2022/08/31 08:58:18;;;;;;;4.05;2.00;;;;;;;17.87;61.06;102169.25;5044801;28;20101;-64
2022/08/31 09:00:49;;;;;;;5.65;2.20;;;;;;;17.92;60.50;102190.69;5041862;28;20033;-64
2022/08/31 09:03:38;;;;;;;4.72;2.38;;;;;;;18.08;61.07;102184.03;5026861;28;20082;-65
2022/08/31 09:06:11;;;;;;;;;;;;;;;18.20;60.89;102182.91;5036138;28;20033;-67
2022/08/31 09:09:11;;;;;;;4.38;2.05;;;;;;;18.25;60.00;102170.16;5044408;28;19925;-67
2022/08/31 09:12:07;;;;;;;5.53;1.98;;;;;;;18.52;61.32;102172.84;4947798;28;20066;-65
2022/08/31 09:14:57;;;;;;;4.22;1.90;;;;;;;18.52;59.45;102175.47;4947712;28;20050;-66
2022/08/31 09:17:41;;;;;;;5.45;1.88;;;;;;;18.69;59.81;102178.31;4947645;28;20037;-67
2022/08/31 09:20:11;;;;;;;6.00;2.00;;;;;;;18.80;59.62;102165.81;4948049;29;20329;-64
2022/08/31 09:22:51;;;;;;;7.07;2.17;;;;;;;18.93;59.28;102173.38;4947030;28;20126;-66
2022/08/31 09:25:50;;;;;;;4.97;2.10;;;;;;;18.98;58.75;102183.44;4948001;28;20051;-65
2022/08/31 09:28:17;;;;;;;6.90;2.30;;;;;;;18.92;57.96;102169.06;4943614;29;20043;-66
2022/08/31 09:30:43;;;;;;;6.10;2.30;;;;;;;19.03;57.85;102184.66;4948122;28;20081;-64
2022/08/31 09:33:27;;;;;;;9.48;2.75;;;;;;;19.07;58.02;102164.97;4952341;28;20035;-65
2022/08/31 09:36:12;;;;;;;6.78;2.30;;;;;;;19.15;58.12;102168.66;4947851;28;20491;-64
2022/08/31 09:38:39;;;;;;;4.63;2.40;;;;;;;19.16;56.81;102167.72;4948170;28;20066;-64
2022/08/31 09:41:27;;;;;;;7.47;2.35;;;;;;;19.31;58.28;102168.84;4951404;28;20127;-65
2022/08/31 09:43:54;;;;;;;9.25;2.72;;;;;;;19.31;57.26;102158.31;4942043;29;20125;-64
2022/08/31 09:46:29;;;;;;;5.32;2.45;;;;;;;19.59;57.43;102162.53;5006289;28;20037;-65
2022/08/31 09:49:01;;;;;;;5.63;2.20;;;;;;;19.60;56.80;102168.63;5040705;28;20031;-64
2022/08/31 09:51:34;;;;;;;5.20;2.40;;;;;;;19.69;56.98;102161.66;5039768;28;20094;-65
2022/08/31 09:57:01;;;;;;;5.78;2.17;;;;;;;19.82;56.32;102159.44;5033223;28;20496;-67
2022/08/31 09:59:42;;;;;;;5.78;2.30;;;;;;;19.91;56.17;102161.16;5029964;28;20018;-66
2022/08/31 10:02:36;;;;;;;3.85;2.10;;;;;;;20.05;56.08;102172.94;5032469;28;20072;-64
2022/08/31 10:05:24;;;;;;;4.78;2.05;;;;;;;20.14;56.38;102167.56;5029622;28;20037;-65
2022/08/31 10:08:19;;;;;;;4.97;2.10;;;;;;;20.25;55.91;102178.84;5031377;28;20068;-65
2022/08/31 10:10:48;;;;;;;4.70;1.85;;;;;;;20.26;55.16;102180.47;5030075;28;20104;-65
2022/08/31 10:13:17;;;;;;;2.75;1.80;;;;;;;20.33;54.78;102170.97;5027485;28;20095;-70
2022/08/31 10:16:01;;;;;;;6.70;1.90;;;;;;;20.42;55.73;102176.13;5032661;28;20016;-64
2022/08/31 10:18:29;;;;;;;3.80;2.03;;;;;;;20.36;55.09;102165.41;5029263;28;20017;-67
2022/08/31 10:21:06;;;;;;;5.82;2.00;;;;;;;20.37;55.24;102173.13;5030729;28;20043;-68
2022/08/31 10:23:53;;;;;;;4.33;2.10;;;;;;;20.34;55.14;102169.97;5031253;28;20040;-64
2022/08/31 10:26:45;;;;;;;6.18;2.53;;;;;;;20.48;55.33;102174.72;5036483;28;20537;-64
2022/08/31 10:29:44;;;;;;;6.05;2.40;;;;;;;20.42;54.56;102164.78;5026496;28;20052;-65
2022/08/31 10:32:28;;;;;;;4.63;2.17;;;;;;;20.47;54.55;102167.75;5016631;28;20045;-64
2022/08/31 10:35:36;;;;;;;3.78;2.10;;;;;;;20.44;54.86;102157.53;5047700;28;20092;-65
2022/08/31 10:38:25;;;;;;;5.47;2.50;;;;;;;20.40;54.66;102161.44;5050753;28;20033;-65
2022/08/31 10:41:02;;;;;;;7.80;2.60;;;;;;;20.36;54.64;102171.50;5048690;28;20025;-64
2022/08/31 10:43:37;;;;;;;6.22;2.85;;;;;;;20.25;54.03;102173.56;5034988;28;20044;-66
2022/08/31 10:46:04;;;;;;;4.65;2.25;;;;;;;20.35;55.09;102166.34;5041346;28;20029;-65
2022/08/31 10:48:30;;;;;;;4.68;2.28;;;;;;;20.38;54.85;102158.16;5031500;28;20075;-66
2022/08/31 10:51:21;;;;;;;4.88;2.42;;;;;;;20.49;54.78;102152.63;5031131;28;20511;-69
2022/08/31 10:54:00;;;;;;;6.65;2.67;;;;;;;20.59;53.62;102163.88;5035670;28;20025;-64
2022/08/31 10:56:48;;;;;;;5.78;2.38;;;;;;;20.78;53.94;102148.78;5034722;28;20087;-65
2022/08/31 10:59:49;;;;;;;5.28;2.38;;;;;;;21.01;53.48;102163.03;5045475;28;20024;-67
2022/08/31 11:02:55;;;;;;;5.32;2.30;;;;;;;21.09;52.93;102157.75;5026239;28;20068;-65
2022/08/31 11:05:39;;;;;;;4.43;2.22;;;;;;;21.37;52.44;102160.16;5042830;28;20074;-65
2022/08/31 11:08:30;;;;;;;5.93;1.90;;;;;;;21.36;51.49;102147.94;5046992;28;20033;-71
2022/08/31 11:10:58;;;;;;;5.47;1.85;;;;;;;21.32;50.95;102154.53;5029048;28;20099;-65
2022/08/31 11:13:42;;;;;;;4.28;2.00;;;;;;;21.54;51.74;102159.16;5029653;28;20304;-65
2022/08/31 11:16:41;;;;;;;3.92;1.92;;;;;;;21.61;51.64;102146.94;5029713;28;20040;-64
2022/08/31 11:19:41;;;;;;;5.10;2.28;;;;;;;21.64;50.75;102146.63;5027641;28;20025;-69
2022/08/31 11:22:27;;;;;;;3.33;1.80;;;;;;;21.61;50.58;102140.84;5030322;28;20059;-65
2022/08/31 11:25:15;;;;;;;4.78;1.80;;;;;;;21.76;51.23;102143.66;5032311;28;20032;-67
2022/08/31 11:27:49;;;;;;;5.85;1.80;;;;;;;21.95;50.06;102148.56;5024700;28;20025;-65
2022/08/31 11:30:25;;;;;;;5.00;2.15;;;;;;;22.14;49.68;102148.25;5044279;28;20035;-65
2022/08/31 11:32:58;;;;;;;4.45;1.80;;;;;;;22.33;50.65;102140.94;5039060;28;20032;-68
2022/08/31 11:35:48;;;;;;;8.35;1.90;;;;;;;22.44;50.13;102137.91;5043790;28;20027;-65
2022/08/31 11:38:40;;;;;;;3.83;1.90;;;;;;;22.31;48.93;102140.25;5043708;28;20024;-67
2022/08/31 11:41:09;;;;;;;4.53;1.83;;;;;;;22.36;48.48;102140.56;5043203;28;20131;-65
2022/08/31 11:43:35;;;;;;;5.20;2.00;;;;;;;22.44;48.45;102137.91;5026507;28;20025;-66
2022/08/31 11:46:24;;;;;;;6.28;1.80;;;;;;;22.55;48.33;102134.91;5034496;28;20033;-65
2022/08/31 11:48:50;;;;;;;4.97;1.88;;;;;;;22.46;47.34;102130.63;5035916;28;20032;-68
2022/08/31 11:51:40;;;;;;;4.55;1.80;;;;;;;22.26;48.41;102140.78;5039216;28;20039;-66
2022/08/31 11:54:40;;;;;;;6.32;1.80;;;;;;;22.59;48.66;102120.31;5045944;28;20024;-68
2022/08/31 11:57:14;;;;;;;3.88;1.80;;;;;;;22.54;47.00;102127.97;5041102;28;20029;-66